Weather observations for the past three days for
Fort Bragg / Simmons Army Airfield
Imperial (Metric)
Date Time (edt) Wind (mph) Vis. (mi.) Weather Sky Cond. Temperature (ºF) Relative Humidity Wind Chill (°F) Heat Index (°F) Pressure Precipitation (in)
Air Dwpt 6 hour altimeter (in) sea level (mb) 1 hr 3 hr 6 hr
Max. Min.
05 22:55 Calm 10.00 Fair CLR 73.8 70.3 89% 29.85 1010.8
05 21:55 Calm 10.00 Fair CLR 73.6 71.1 92% 29.85 1010.8
05 20:55 Calm 10.00 A Few Clouds FEW005 FEW160 74.3 71.4 91% 29.85 1010.9
05 19:55 W 6 10.00 Fair CLR 74.7 72.5 99.9 73.8 93% 29.81 1009.5 1.21
05 18:55 Calm 10.00 Fair CLR 74.3 72.1 93% 29.79 1008.8 0.01
05 17:55 W 5 3.00 Thunderstorm Rain Fog/Mist OVC050 74.1 71.2 91% 29.8 1009.2 0.14
05 16:55 W 29 G 39 0.38 Thunderstorm Heavy Rain Fog and Windy FEW004 BKN043 OVC065 74.1 70.9 90% 29.84 1010.5 1.06 1.06
05 15:55 SW 8 10.00 Partly Cloudy SCT070 SCT085 SCT210 96.8 69.1 41% 103 29.76 1007.7
05 13:55 W 5 10.00 Partly Cloudy SCT055 97 72 97.5 80.2 45% 106 29.82 1009.8
05 12:55 NW 3 10.00 Fair CLR 95.5 72.7 48% 105 29.84 1010.5
05 11:55 N 7 10.00 A Few Clouds FEW200 93.7 74.5 54% 105 29.87 1011.5
05 10:55 W 5 10.00 Fair CLR 91 75.6 61% 103 29.87 1011.5
05 09:55 W 7 10.00 Fair CLR 87.4 75.9 69% 98 29.87 1011.5
05 08:55 W 7 10.00 Fair CLR 83.5 75.7 78% 92 29.89 1012.2
05 07:55 W 7 10.00 Fair CLR 80.2 75.6 80.4 78.8 86% 86 29.88 1011.8
05 06:55 W 6 10.00 Fair CLR 79.3 75.4 88% 84 29.86 1011.1
05 05:55 SW 5 10.00 Fair CLR 79.9 75.6 87% 85 29.85 1010.8
05 04:55 SW 7 10.00 Fair CLR 80.2 75.6 86% 86 29.85 1010.8
05 03:55 W 5 10.00 Fair CLR 80.1 75 85% 85 29.87 1011.5
05 02:55 Calm 10.00 Fair CLR 79.3 71.8 78% 83 29.9 1012.5
05 01:55 SW 3 10.00 Fair CLR 79.9 70 90.5 79.3 72% 83 29.91 1012.8
05 00:55 SE 6 10.00 Fair CLR 79.7 70.2 73% 83 29.94 1013.9
04 23:55 E 10 10.00 Mostly Cloudy BKN023 81.5 71.6 72% 86 29.97 1014.9
04 22:55 SW 10 10.00 Fair CLR 85.6 75.9 73% 95 29.93 1013.5
04 21:55 S 3 10.00 Partly Cloudy SCT150 SCT220 87.6 73.4 63% 96 29.94 1013.9
04 20:55 S 5 10.00 Fair CLR 88.3 74.1 63% 97 29.9 1012.5
04 19:55 SW 6 10.00 Fair CLR 90.7 75.2 95.9 89.8 61% 102 29.9 1012.5
04 18:55 SW 5 10.00 Fair CLR 93 73.8 54% 103 29.9 1012.5
04 17:55 S 6 10.00 Fair CLR 94.5 73.9 52% 105 29.9 1012.5
04 16:55 S 7 10.00 Fair CLR 95.2 74.7 52% 107 29.89 1012.2
04 15:55 S 8 10.00 Fair CLR 95.4 74.3 51% 107 29.92 1013.2
04 14:55 SW 7 10.00 Fair CLR 93.7 73.9 53% 104 29.96 1014.5
04 13:55 SW 3 10.00 Fair CLR 93.9 74.7 93.9 79.2 54% 105 29.98 1015.2
04 12:55 S 6 10.00 Fair CLR 92.1 75.2 58% 104 29.99 1015.5
04 11:55 W 9 10.00 A Few Clouds FEW200 90.9 75 60% 102 30 1015.9
04 10:55 SW 7 10.00 Fair CLR 88.7 75.4 65% 99 30.02 1016.6
04 09:55 SW 9 10.00 Fair CLR 85.6 74.7 70% 94 30.01 1016.2
04 08:55 SW 9 10.00 Fair CLR 82.6 76.1 81% 90 30.01 1016.2
04 07:55 SW 7 10.00 Fair CLR 79 75.7 80.2 77.4 90% 83 30.01 1016.2
04 06:55 W 5 10.00 Fair CLR 77.7 75.2 92% 80 30.01 1016.2
04 05:55 Calm 10.00 Fair CLR 78.3 75.7 92% 81 29.99 1015.5
04 04:55 SW 3 10.00 Fair CLR 78.4 75.6 91% 82 29.98 1015.2
04 03:55 SW 3 10.00 Fair CLR 78.8 75.2 89% 82 29.98 1015.2
04 02:55 SW 5 10.00 Fair CLR 79.3 75 87% 84 29.99 1015.5
04 01:55 SW 5 10.00 Fair CLR 80.2 75.2 90.3 80.2 85% 85 30.01 1016.2
04 00:55 SW 6 10.00 Fair CLR 81.7 75.2 81% 88 30.01 1016.2
03 23:55 SW 7 10.00 Fair CLR 82.4 73.9 76% 89 30.02 1016.6
03 22:55 S 7 10.00 Fair CLR 84.2 73.2 70% 91 30.02 1016.6
03 21:55 SW 5 10.00 Fair CLR 86 72.3 64% 93 30.02 1016.6
03 20:55 S 3 10.00 Fair CLR 87.8 73.6 63% 96 29.99 1015.5
03 19:55 S 3 10.00 Fair CLR 90.5 73.6 98.1 90.5 58% 100 29.97 1014.9
03 18:55 S 5 10.00 Fair CLR 93.4 73 52% 103 29.96 1014.5
03 17:55 SE 5 10.00 Fair CLR 95.5 72 47% 104 29.96 1014.5
03 16:55 S 6 10.00 Fair CLR 97 71.4 44% 105 29.96 1014.5
03 15:55 S 6 10.00 A Few Clouds FEW050 97.3 73.6 47% 108 29.98 1015.2
03 14:55 S 5 10.00 A Few Clouds FEW055 95.9 71.6 45% 104 29.99 1015.5
03 13:55 E 5 10.00 Fair CLR 97.2 72.9 97.2 80.2 46% 107 30.01 1016.2
03 12:55 W 5 10.00 Fair CLR 93.9 72.9 51% 103 30.02 1016.6
03 11:55 E 3 10.00 Fair CLR 93.7 75.6 56% 106 30.04 1017.2
03 10:55 Calm 10.00 Fair CLR 91.6 75.2 59% 103 30.04 1017.2
03 09:55 W 7 10.00 Fair CLR 88.2 73.9 63% 97 30.03 1016.9
03 08:55 SW 6 10.00 Fair CLR 84.2 72.9 69% 91 30.04 1017.3
03 07:55 SW 5 10.00 Fair CLR 80.1 73.9 82.4 77.5 82% 85 30.04 1017.3
03 06:55 W 3 10.00 Fair CLR 77.5 73.6 88% 79 30.03 1016.9
03 05:55 Calm 10.00 Fair CLR 78.1 73.4 86% 81 30.02 1016.6
03 04:55 SW 5 10.00 Fair CLR 79.9 73.8 82% 84 30.01 1016.2
03 03:55 S 3 10.00 Fair CLR 80.1 73.9 82% 85 30.01 1016.2
03 02:55 Calm 10.00 Fair CLR 81.1 74.3 80% 87 30 1015.9
03 01:55 Calm 10.00 Fair CLR 82.4 74.3 88.3 82.4 77% 89 30.01 1016.2
03 00:55 SW 5 10.00 Fair CLR 83.7 74.5 74% 91 30.01 1016.2
02 23:55 SW 5 10.00 Fair CLR 85.3 75.9 74% 95 30.01 1016.2
Date Time (edt) Wind (mph) Vis. (mi.) Weather Sky Cond. Air Dwpt Max. Min. Relative Humidity Wind Chill (°F) Heat Index (°F) altimeter (in) sea level (mb) 1 hr 3 hr 6 hr
6 hour
Temperature (ºF) Pressure Precipitation (in)